sensor_id;sensor_type;location;lat;lon;timestamp;P1;durP1;ratioP1;P2;durP2;ratioP2
77866;SDS011;67271;59.120;37.970;2023-08-06T00:03:35;6.97;;;4.15;;
77866;SDS011;67271;59.120;37.970;2023-08-06T00:06:01;7.72;;;4.32;;
77866;SDS011;67271;59.120;37.970;2023-08-06T00:08:27;6.35;;;4.82;;
77866;SDS011;67271;59.120;37.970;2023-08-06T00:10:53;8.10;;;4.40;;
77866;SDS011;67271;59.120;37.970;2023-08-06T00:13:19;5.70;;;4.57;;
77866;SDS011;67271;59.120;37.970;2023-08-06T00:15:45;6.00;;;4.18;;
77866;SDS011;67271;59.120;37.970;2023-08-06T00:18:11;7.38;;;3.95;;
77866;SDS011;67271;59.120;37.970;2023-08-06T00:20:40;5.85;;;4.60;;
77866;SDS011;67271;59.120;37.970;2023-08-06T00:23:07;7.95;;;3.97;;
77866;SDS011;67271;59.120;37.970;2023-08-06T00:25:33;6.65;;;3.83;;
77866;SDS011;67271;59.120;37.970;2023-08-06T00:27:59;10.18;;;4.80;;
77866;SDS011;67271;59.120;37.970;2023-08-06T00:30:25;9.80;;;3.90;;
77866;SDS011;67271;59.120;37.970;2023-08-06T00:32:51;6.95;;;4.40;;
77866;SDS011;67271;59.120;37.970;2023-08-06T00:35:17;12.95;;;3.78;;
77866;SDS011;67271;59.120;37.970;2023-08-06T00:37:42;5.28;;;4.20;;
77866;SDS011;67271;59.120;37.970;2023-08-06T00:40:09;7.85;;;4.65;;
77866;SDS011;67271;59.120;37.970;2023-08-06T00:42:35;5.82;;;3.70;;
77866;SDS011;67271;59.120;37.970;2023-08-06T00:45:01;6.75;;;4.18;;
77866;SDS011;67271;59.120;37.970;2023-08-06T00:47:27;6.72;;;3.90;;
77866;SDS011;67271;59.120;37.970;2023-08-06T00:49:53;6.03;;;3.67;;
77866;SDS011;67271;59.120;37.970;2023-08-06T00:52:19;8.63;;;3.83;;
77866;SDS011;67271;59.120;37.970;2023-08-06T00:54:45;4.60;;;3.78;;
77866;SDS011;67271;59.120;37.970;2023-08-06T00:57:11;6.10;;;4.10;;
77866;SDS011;67271;59.120;37.970;2023-08-06T00:59:37;4.20;;;3.65;;
77866;SDS011;67271;59.120;37.970;2023-08-06T01:02:03;6.18;;;3.65;;
77866;SDS011;67271;59.120;37.970;2023-08-06T01:04:29;4.97;;;3.85;;
77866;SDS011;67271;59.120;37.970;2023-08-06T01:07:13;4.63;;;3.50;;
77866;SDS011;67271;59.120;37.970;2023-08-06T01:13:06;5.28;;;3.35;;
77866;SDS011;67271;59.120;37.970;2023-08-06T01:15:41;7.38;;;4.13;;
77866;SDS011;67271;59.120;37.970;2023-08-06T01:18:11;5.95;;;4.47;;
77866;SDS011;67271;59.120;37.970;2023-08-06T01:20:38;4.70;;;3.67;;
77866;SDS011;67271;59.120;37.970;2023-08-06T01:23:04;5.72;;;3.45;;
77866;SDS011;67271;59.120;37.970;2023-08-06T01:25:31;5.25;;;2.90;;
77866;SDS011;67271;59.120;37.970;2023-08-06T01:28:04;6.13;;;4.10;;
77866;SDS011;67271;59.120;37.970;2023-08-06T01:30:37;7.43;;;3.88;;
77866;SDS011;67271;59.120;37.970;2023-08-06T01:33:06;7.65;;;4.00;;
77866;SDS011;67271;59.120;37.970;2023-08-06T01:35:40;4.25;;;3.42;;
77866;SDS011;67271;59.120;37.970;2023-08-06T01:38:07;3.83;;;3.10;;
77866;SDS011;67271;59.120;37.970;2023-08-06T01:40:33;5.65;;;3.55;;
77866;SDS011;67271;59.120;37.970;2023-08-06T01:43:00;5.90;;;3.80;;
77866;SDS011;67271;59.120;37.970;2023-08-06T01:45:26;7.25;;;3.13;;
77866;SDS011;67271;59.120;37.970;2023-08-06T01:47:51;4.53;;;3.22;;
77866;SDS011;67271;59.120;37.970;2023-08-06T01:50:17;10.32;;;3.67;;
77866;SDS011;67271;59.120;37.970;2023-08-06T01:52:44;5.13;;;3.60;;
77866;SDS011;67271;59.120;37.970;2023-08-06T01:55:12;3.70;;;3.15;;
77866;SDS011;67271;59.120;37.970;2023-08-06T01:57:38;6.00;;;3.50;;
77866;SDS011;67271;59.120;37.970;2023-08-06T02:00:04;7.78;;;3.45;;
77866;SDS011;67271;59.120;37.970;2023-08-06T02:02:38;8.82;;;3.47;;
77866;SDS011;67271;59.120;37.970;2023-08-06T02:05:06;5.00;;;3.13;;
77866;SDS011;67271;59.120;37.970;2023-08-06T02:07:34;5.72;;;3.55;;
77866;SDS011;67271;59.120;37.970;2023-08-06T02:10:00;6.32;;;3.67;;
77866;SDS011;67271;59.120;37.970;2023-08-06T02:12:26;9.32;;;3.28;;
77866;SDS011;67271;59.120;37.970;2023-08-06T02:14:51;4.72;;;3.38;;
77866;SDS011;67271;59.120;37.970;2023-08-06T02:17:17;6.55;;;3.50;;
77866;SDS011;67271;59.120;37.970;2023-08-06T02:19:43;4.22;;;3.10;;
77866;SDS011;67271;59.120;37.970;2023-08-06T02:22:09;4.20;;;3.17;;
77866;SDS011;67271;59.120;37.970;2023-08-06T02:24:35;5.05;;;4.05;;
77866;SDS011;67271;59.120;37.970;2023-08-06T02:27:01;3.95;;;3.22;;
77866;SDS011;67271;59.120;37.970;2023-08-06T02:29:27;4.43;;;3.63;;
77866;SDS011;67271;59.120;37.970;2023-08-06T02:31:53;3.78;;;2.97;;
77866;SDS011;67271;59.120;37.970;2023-08-06T02:34:19;4.00;;;3.28;;
77866;SDS011;67271;59.120;37.970;2023-08-06T02:36:45;10.93;;;3.20;;
77866;SDS011;67271;59.120;37.970;2023-08-06T02:39:11;5.00;;;3.28;;
77866;SDS011;67271;59.120;37.970;2023-08-06T02:41:37;5.32;;;2.60;;
77866;SDS011;67271;59.120;37.970;2023-08-06T02:44:03;5.03;;;3.08;;
77866;SDS011;67271;59.120;37.970;2023-08-06T02:46:29;5.55;;;3.78;;
77866;SDS011;67271;59.120;37.970;2023-08-06T02:48:55;8.00;;;3.50;;
77866;SDS011;67271;59.120;37.970;2023-08-06T02:51:21;5.05;;;2.97;;
77866;SDS011;67271;59.120;37.970;2023-08-06T02:53:47;4.55;;;3.15;;
77866;SDS011;67271;59.120;37.970;2023-08-06T02:56:15;5.35;;;3.15;;
77866;SDS011;67271;59.120;37.970;2023-08-06T02:58:53;3.88;;;3.08;;
77866;SDS011;67271;59.120;37.970;2023-08-06T03:01:35;11.55;;;3.25;;
77866;SDS011;67271;59.120;37.970;2023-08-06T03:04:08;4.43;;;2.97;;
77866;SDS011;67271;59.120;37.970;2023-08-06T03:06:38;4.10;;;2.85;;
77866;SDS011;67271;59.120;37.970;2023-08-06T03:09:04;4.65;;;2.95;;
77866;SDS011;67271;59.120;37.970;2023-08-06T03:11:30;6.38;;;3.05;;
77866;SDS011;67271;59.120;37.970;2023-08-06T03:14:02;21.77;;;3.45;;
77866;SDS011;67271;59.120;37.970;2023-08-06T03:16:28;5.10;;;2.97;;
77866;SDS011;67271;59.120;37.970;2023-08-06T03:18:54;5.47;;;2.70;;
77866;SDS011;67271;59.120;37.970;2023-08-06T03:21:20;4.38;;;2.70;;
77866;SDS011;67271;59.120;37.970;2023-08-06T03:23:47;3.83;;;2.75;;
77866;SDS011;67271;59.120;37.970;2023-08-06T03:26:14;6.88;;;3.10;;
77866;SDS011;67271;59.120;37.970;2023-08-06T03:28:40;3.42;;;2.92;;
77866;SDS011;67271;59.120;37.970;2023-08-06T03:31:06;5.38;;;3.17;;
77866;SDS011;67271;59.120;37.970;2023-08-06T03:33:41;5.75;;;3.08;;
77866;SDS011;67271;59.120;37.970;2023-08-06T03:36:12;4.88;;;2.88;;
77866;SDS011;67271;59.120;37.970;2023-08-06T03:38:38;6.43;;;2.95;;
77866;SDS011;67271;59.120;37.970;2023-08-06T03:41:06;5.95;;;3.50;;
77866;SDS011;67271;59.120;37.970;2023-08-06T03:43:32;5.10;;;2.95;;
77866;SDS011;67271;59.120;37.970;2023-08-06T03:45:59;3.85;;;2.83;;
77866;SDS011;67271;59.120;37.970;2023-08-06T03:48:25;5.32;;;3.60;;
77866;SDS011;67271;59.120;37.970;2023-08-06T03:50:51;3.55;;;2.72;;
77866;SDS011;67271;59.120;37.970;2023-08-06T03:53:18;7.03;;;3.38;;
77866;SDS011;67271;59.120;37.970;2023-08-06T03:55:44;6.65;;;2.88;;
77866;SDS011;67271;59.120;37.970;2023-08-06T03:58:10;5.53;;;3.10;;
77866;SDS011;67271;59.120;37.970;2023-08-06T04:00:36;5.82;;;3.40;;
77866;SDS011;67271;59.120;37.970;2023-08-06T04:03:02;3.63;;;3.17;;
77866;SDS011;67271;59.120;37.970;2023-08-06T04:05:30;7.32;;;3.22;;
77866;SDS011;67271;59.120;37.970;2023-08-06T04:07:57;6.32;;;3.55;;
77866;SDS011;67271;59.120;37.970;2023-08-06T04:10:23;5.78;;;3.20;;
77866;SDS011;67271;59.120;37.970;2023-08-06T04:12:49;6.53;;;3.88;;
77866;SDS011;67271;59.120;37.970;2023-08-06T04:15:15;5.07;;;3.83;;
77866;SDS011;67271;59.120;37.970;2023-08-06T04:17:41;3.83;;;3.35;;
77866;SDS011;67271;59.120;37.970;2023-08-06T04:20:07;7.22;;;3.78;;
77866;SDS011;67271;59.120;37.970;2023-08-06T04:22:33;4.20;;;3.40;;
77866;SDS011;67271;59.120;37.970;2023-08-06T04:24:59;7.43;;;4.40;;
77866;SDS011;67271;59.120;37.970;2023-08-06T04:27:25;8.05;;;4.07;;
77866;SDS011;67271;59.120;37.970;2023-08-06T04:29:51;6.72;;;3.78;;
77866;SDS011;67271;59.120;37.970;2023-08-06T04:32:17;7.60;;;3.42;;
77866;SDS011;67271;59.120;37.970;2023-08-06T04:34:47;5.30;;;3.38;;
77866;SDS011;67271;59.120;37.970;2023-08-06T04:37:13;6.25;;;3.65;;
77866;SDS011;67271;59.120;37.970;2023-08-06T04:39:39;5.78;;;3.35;;
77866;SDS011;67271;59.120;37.970;2023-08-06T04:42:06;6.68;;;3.25;;
77866;SDS011;67271;59.120;37.970;2023-08-06T04:44:31;8.18;;;3.65;;
77866;SDS011;67271;59.120;37.970;2023-08-06T04:46:57;4.07;;;3.13;;
77866;SDS011;67271;59.120;37.970;2023-08-06T04:49:24;3.92;;;3.13;;
77866;SDS011;67271;59.120;37.970;2023-08-06T04:51:50;5.45;;;3.50;;
77866;SDS011;67271;59.120;37.970;2023-08-06T04:54:16;5.97;;;3.35;;
77866;SDS011;67271;59.120;37.970;2023-08-06T04:56:42;5.57;;;3.70;;
77866;SDS011;67271;59.120;37.970;2023-08-06T04:59:08;7.50;;;3.20;;
77866;SDS011;67271;59.120;37.970;2023-08-06T05:01:34;4.85;;;3.05;;
77866;SDS011;67271;59.120;37.970;2023-08-06T05:03:59;8.25;;;3.10;;
77866;SDS011;67271;59.120;37.970;2023-08-06T05:06:25;4.13;;;3.08;;
77866;SDS011;67271;59.120;37.970;2023-08-06T05:08:51;7.93;;;3.63;;
77866;SDS011;67271;59.120;37.970;2023-08-06T05:11:17;7.10;;;3.78;;
77866;SDS011;67271;59.120;37.970;2023-08-06T05:13:43;3.97;;;3.22;;
77866;SDS011;67271;59.120;37.970;2023-08-06T05:16:09;4.80;;;3.05;;
77866;SDS011;67271;59.120;37.970;2023-08-06T05:18:34;6.35;;;3.22;;
77866;SDS011;67271;59.120;37.970;2023-08-06T05:21:03;7.13;;;3.33;;
77866;SDS011;67271;59.120;37.970;2023-08-06T05:23:28;4.05;;;3.10;;
77866;SDS011;67271;59.120;37.970;2023-08-06T05:25:54;5.90;;;3.10;;
77866;SDS011;67271;59.120;37.970;2023-08-06T05:28:20;4.28;;;2.97;;
77866;SDS011;67271;59.120;37.970;2023-08-06T05:30:46;5.25;;;3.20;;
77866;SDS011;67271;59.120;37.970;2023-08-06T05:33:12;4.05;;;3.08;;
77866;SDS011;67271;59.120;37.970;2023-08-06T05:35:38;6.95;;;3.30;;
77866;SDS011;67271;59.120;37.970;2023-08-06T05:38:04;6.70;;;3.15;;
77866;SDS011;67271;59.120;37.970;2023-08-06T05:40:29;4.07;;;2.78;;
77866;SDS011;67271;59.120;37.970;2023-08-06T05:42:55;7.63;;;3.42;;
77866;SDS011;67271;59.120;37.970;2023-08-06T05:45:21;5.97;;;3.13;;
77866;SDS011;67271;59.120;37.970;2023-08-06T05:47:50;7.80;;;2.90;;
77866;SDS011;67271;59.120;37.970;2023-08-06T05:50:16;5.03;;;2.85;;
77866;SDS011;67271;59.120;37.970;2023-08-06T05:52:42;6.18;;;3.00;;
77866;SDS011;67271;59.120;37.970;2023-08-06T05:55:08;6.30;;;3.50;;
77866;SDS011;67271;59.120;37.970;2023-08-06T05:57:34;4.20;;;3.00;;
77866;SDS011;67271;59.120;37.970;2023-08-06T06:00:00;6.22;;;3.30;;
77866;SDS011;67271;59.120;37.970;2023-08-06T06:02:27;8.43;;;2.65;;
77866;SDS011;67271;59.120;37.970;2023-08-06T06:04:53;5.47;;;2.95;;
77866;SDS011;67271;59.120;37.970;2023-08-06T06:07:19;5.22;;;2.92;;
77866;SDS011;67271;59.120;37.970;2023-08-06T06:09:44;5.05;;;3.00;;
77866;SDS011;67271;59.120;37.970;2023-08-06T06:12:10;4.28;;;2.75;;
77866;SDS011;67271;59.120;37.970;2023-08-06T06:14:36;5.30;;;2.60;;
77866;SDS011;67271;59.120;37.970;2023-08-06T06:17:02;6.78;;;3.00;;
77866;SDS011;67271;59.120;37.970;2023-08-06T06:19:28;4.10;;;3.13;;
77866;SDS011;67271;59.120;37.970;2023-08-06T06:21:54;3.90;;;2.95;;
77866;SDS011;67271;59.120;37.970;2023-08-06T06:24:22;4.85;;;3.10;;
77866;SDS011;67271;59.120;37.970;2023-08-06T06:26:48;4.13;;;2.40;;
77866;SDS011;67271;59.120;37.970;2023-08-06T06:29:14;3.60;;;2.58;;
77866;SDS011;67271;59.120;37.970;2023-08-06T06:31:40;3.63;;;2.70;;
77866;SDS011;67271;59.120;37.970;2023-08-06T06:34:06;3.90;;;2.67;;
77866;SDS011;67271;59.120;37.970;2023-08-06T06:36:32;3.13;;;2.47;;
77866;SDS011;67271;59.120;37.970;2023-08-06T06:38:58;5.07;;;2.50;;
77866;SDS011;67271;59.120;37.970;2023-08-06T06:41:24;4.55;;;2.70;;
77866;SDS011;67271;59.120;37.970;2023-08-06T06:43:51;6.18;;;2.78;;
77866;SDS011;67271;59.120;37.970;2023-08-06T06:46:17;5.68;;;2.50;;
77866;SDS011;67271;59.120;37.970;2023-08-06T06:48:43;3.90;;;2.78;;
77866;SDS011;67271;59.120;37.970;2023-08-06T06:51:09;3.67;;;2.85;;
77866;SDS011;67271;59.120;37.970;2023-08-06T06:53:35;6.85;;;2.50;;
77866;SDS011;67271;59.120;37.970;2023-08-06T06:56:11;4.10;;;2.72;;
77866;SDS011;67271;59.120;37.970;2023-08-06T06:58:36;3.50;;;2.67;;
77866;SDS011;67271;59.120;37.970;2023-08-06T07:01:04;4.90;;;2.72;;
77866;SDS011;67271;59.120;37.970;2023-08-06T07:03:30;4.63;;;2.40;;
77866;SDS011;67271;59.120;37.970;2023-08-06T07:05:57;3.40;;;2.38;;
77866;SDS011;67271;59.120;37.970;2023-08-06T07:08:26;6.13;;;2.70;;
77866;SDS011;67271;59.120;37.970;2023-08-06T07:11:05;3.45;;;2.70;;
77866;SDS011;67271;59.120;37.970;2023-08-06T07:13:32;4.55;;;2.45;;
77866;SDS011;67271;59.120;37.970;2023-08-06T07:15:59;3.00;;;2.42;;
77866;SDS011;67271;59.120;37.970;2023-08-06T07:18:25;3.67;;;2.70;;
77866;SDS011;67271;59.120;37.970;2023-08-06T07:20:51;4.10;;;2.67;;
77866;SDS011;67271;59.120;37.970;2023-08-06T07:23:21;4.72;;;2.50;;
77866;SDS011;67271;59.120;37.970;2023-08-06T07:25:48;5.47;;;2.33;;
77866;SDS011;67271;59.120;37.970;2023-08-06T07:28:14;5.03;;;2.85;;
77866;SDS011;67271;59.120;37.970;2023-08-06T07:30:42;3.20;;;2.67;;
77866;SDS011;67271;59.120;37.970;2023-08-06T07:33:08;4.82;;;2.60;;
77866;SDS011;67271;59.120;37.970;2023-08-06T07:35:35;4.70;;;2.85;;
77866;SDS011;67271;59.120;37.970;2023-08-06T07:38:01;4.90;;;2.50;;
77866;SDS011;67271;59.120;37.970;2023-08-06T07:40:27;9.07;;;2.80;;
77866;SDS011;67271;59.120;37.970;2023-08-06T07:42:53;6.18;;;2.70;;
77866;SDS011;67271;59.120;37.970;2023-08-06T07:45:20;4.15;;;2.58;;
77866;SDS011;67271;59.120;37.970;2023-08-06T07:47:46;7.60;;;2.95;;
77866;SDS011;67271;59.120;37.970;2023-08-06T07:50:12;3.72;;;2.80;;
77866;SDS011;67271;59.120;37.970;2023-08-06T07:52:38;5.40;;;2.53;;
77866;SDS011;67271;59.120;37.970;2023-08-06T07:55:04;4.82;;;2.40;;
77866;SDS011;67271;59.120;37.970;2023-08-06T07:57:31;5.35;;;2.72;;
77866;SDS011;67271;59.120;37.970;2023-08-06T07:59:57;3.67;;;2.30;;
77866;SDS011;67271;59.120;37.970;2023-08-06T08:02:23;3.92;;;2.35;;
77866;SDS011;67271;59.120;37.970;2023-08-06T08:04:49;5.15;;;2.15;;
77866;SDS011;67271;59.120;37.970;2023-08-06T08:07:16;3.05;;;2.08;;
77866;SDS011;67271;59.120;37.970;2023-08-06T08:09:41;4.53;;;2.60;;
77866;SDS011;67271;59.120;37.970;2023-08-06T08:12:07;5.50;;;2.60;;
77866;SDS011;67271;59.120;37.970;2023-08-06T08:14:33;5.68;;;2.67;;
77866;SDS011;67271;59.120;37.970;2023-08-06T08:17:01;3.45;;;2.20;;
77866;SDS011;67271;59.120;37.970;2023-08-06T08:19:31;15.38;;;2.97;;
77866;SDS011;67271;59.120;37.970;2023-08-06T08:21:58;8.23;;;2.30;;
77866;SDS011;67271;59.120;37.970;2023-08-06T08:24:24;4.78;;;2.10;;
77866;SDS011;67271;59.120;37.970;2023-08-06T08:26:51;8.48;;;2.42;;
77866;SDS011;67271;59.120;37.970;2023-08-06T08:29:18;4.25;;;2.30;;
77866;SDS011;67271;59.120;37.970;2023-08-06T08:31:46;2.90;;;2.15;;
77866;SDS011;67271;59.120;37.970;2023-08-06T08:34:15;6.28;;;2.20;;
77866;SDS011;67271;59.120;37.970;2023-08-06T08:36:43;5.03;;;2.10;;
77866;SDS011;67271;59.120;37.970;2023-08-06T08:39:12;3.30;;;2.30;;
77866;SDS011;67271;59.120;37.970;2023-08-06T08:41:38;3.33;;;2.30;;
77866;SDS011;67271;59.120;37.970;2023-08-06T08:44:06;3.47;;;2.00;;
77866;SDS011;67271;59.120;37.970;2023-08-06T08:46:35;8.93;;;2.30;;
77866;SDS011;67271;59.120;37.970;2023-08-06T08:49:03;4.35;;;2.20;;
77866;SDS011;67271;59.120;37.970;2023-08-06T08:51:29;6.93;;;2.30;;
77866;SDS011;67271;59.120;37.970;2023-08-06T08:53:57;2.33;;;1.90;;
77866;SDS011;67271;59.120;37.970;2023-08-06T08:56:23;3.85;;;2.20;;
77866;SDS011;67271;59.120;37.970;2023-08-06T08:58:49;7.22;;;2.30;;
77866;SDS011;67271;59.120;37.970;2023-08-06T09:01:18;3.28;;;2.10;;
77866;SDS011;67271;59.120;37.970;2023-08-06T09:03:45;6.78;;;2.20;;
77866;SDS011;67271;59.120;37.970;2023-08-06T09:06:12;4.25;;;2.30;;
77866;SDS011;67271;59.120;37.970;2023-08-06T09:11:16;4.15;;;2.20;;
77866;SDS011;67271;59.120;37.970;2023-08-06T09:13:46;6.65;;;2.60;;
77866;SDS011;67271;59.120;37.970;2023-08-06T09:16:13;3.97;;;2.42;;
77866;SDS011;67271;59.120;37.970;2023-08-06T09:18:39;3.72;;;2.58;;
77866;SDS011;67271;59.120;37.970;2023-08-06T09:21:05;8.43;;;2.60;;
77866;SDS011;67271;59.120;37.970;2023-08-06T09:23:31;6.95;;;2.33;;
77866;SDS011;67271;59.120;37.970;2023-08-06T09:25:58;4.35;;;2.40;;
77866;SDS011;67271;59.120;37.970;2023-08-06T09:28:34;3.95;;;2.72;;
77866;SDS011;67271;59.120;37.970;2023-08-06T09:31:04;3.78;;;2.60;;
77866;SDS011;67271;59.120;37.970;2023-08-06T09:33:30;4.15;;;2.40;;
77866;SDS011;67271;59.120;37.970;2023-08-06T09:35:56;9.95;;;2.53;;
77866;SDS011;67271;59.120;37.970;2023-08-06T09:38:22;7.65;;;2.65;;
77866;SDS011;67271;59.120;37.970;2023-08-06T09:40:47;4.32;;;2.80;;
77866;SDS011;67271;59.120;37.970;2023-08-06T09:43:13;3.80;;;2.60;;
77866;SDS011;67271;59.120;37.970;2023-08-06T09:45:39;5.88;;;2.72;;
77866;SDS011;67271;59.120;37.970;2023-08-06T09:48:06;5.43;;;2.40;;
77866;SDS011;67271;59.120;37.970;2023-08-06T09:50:33;5.13;;;2.70;;
77866;SDS011;67271;59.120;37.970;2023-08-06T09:53:03;11.38;;;2.80;;
77866;SDS011;67271;59.120;37.970;2023-08-06T09:55:36;6.13;;;3.47;;
77866;SDS011;67271;59.120;37.970;2023-08-06T09:58:02;5.57;;;2.47;;
77866;SDS011;67271;59.120;37.970;2023-08-06T10:00:29;10.10;;;2.90;;
77866;SDS011;67271;59.120;37.970;2023-08-06T10:03:00;7.15;;;2.85;;
77866;SDS011;67271;59.120;37.970;2023-08-06T10:05:26;8.25;;;3.17;;
77866;SDS011;67271;59.120;37.970;2023-08-06T10:07:53;6.07;;;2.75;;
77866;SDS011;67271;59.120;37.970;2023-08-06T10:10:21;4.60;;;2.95;;
77866;SDS011;67271;59.120;37.970;2023-08-06T10:12:49;5.70;;;2.95;;
77866;SDS011;67271;59.120;37.970;2023-08-06T10:15:26;5.80;;;3.10;;
77866;SDS011;67271;59.120;37.970;2023-08-06T10:17:54;8.00;;;3.35;;
77866;SDS011;67271;59.120;37.970;2023-08-06T10:20:22;5.30;;;3.00;;
77866;SDS011;67271;59.120;37.970;2023-08-06T10:23:04;4.85;;;2.97;;
77866;SDS011;67271;59.120;37.970;2023-08-06T10:25:33;3.72;;;2.80;;
77866;SDS011;67271;59.120;37.970;2023-08-06T10:28:00;3.83;;;2.78;;
77866;SDS011;67271;59.120;37.970;2023-08-06T10:30:33;5.53;;;2.92;;
77866;SDS011;67271;59.120;37.970;2023-08-06T10:33:06;5.82;;;3.20;;
77866;SDS011;67271;59.120;37.970;2023-08-06T10:38:12;6.05;;;2.88;;
77866;SDS011;67271;59.120;37.970;2023-08-06T10:40:41;6.43;;;3.17;;
77866;SDS011;67271;59.120;37.970;2023-08-06T10:45:58;7.78;;;3.72;;
77866;SDS011;67271;59.120;37.970;2023-08-06T10:48:28;6.88;;;3.42;;
77866;SDS011;67271;59.120;37.970;2023-08-06T10:51:07;5.50;;;3.15;;
77866;SDS011;67271;59.120;37.970;2023-08-06T10:53:38;16.98;;;3.25;;
77866;SDS011;67271;59.120;37.970;2023-08-06T10:58:40;5.93;;;3.30;;
77866;SDS011;67271;59.120;37.970;2023-08-06T11:01:07;5.40;;;2.95;;
77866;SDS011;67271;59.120;37.970;2023-08-06T11:03:33;4.60;;;3.30;;
77866;SDS011;67271;59.120;37.970;2023-08-06T11:06:00;8.57;;;4.55;;
77866;SDS011;67271;59.120;37.970;2023-08-06T11:08:26;6.70;;;3.25;;
77866;SDS011;67271;59.120;37.970;2023-08-06T11:10:53;5.00;;;3.33;;
77866;SDS011;67271;59.120;37.970;2023-08-06T11:13:19;4.00;;;2.90;;
77866;SDS011;67271;59.120;37.970;2023-08-06T11:15:46;6.95;;;3.25;;
77866;SDS011;67271;59.120;37.970;2023-08-06T11:18:12;8.20;;;3.65;;
77866;SDS011;67271;59.120;37.970;2023-08-06T11:20:39;5.25;;;3.67;;
77866;SDS011;67271;59.120;37.970;2023-08-06T11:23:05;15.40;;;5.22;;
77866;SDS011;67271;59.120;37.970;2023-08-06T11:25:35;7.65;;;3.50;;
77866;SDS011;67271;59.120;37.970;2023-08-06T11:28:02;5.68;;;3.40;;
77866;SDS011;67271;59.120;37.970;2023-08-06T11:30:29;11.30;;;3.42;;
77866;SDS011;67271;59.120;37.970;2023-08-06T11:32:56;4.38;;;2.92;;
77866;SDS011;67271;59.120;37.970;2023-08-06T11:35:22;6.93;;;3.20;;
77866;SDS011;67271;59.120;37.970;2023-08-06T11:37:48;4.47;;;3.40;;
77866;SDS011;67271;59.120;37.970;2023-08-06T11:40:14;5.22;;;3.38;;
77866;SDS011;67271;59.120;37.970;2023-08-06T11:42:40;10.20;;;3.38;;
77866;SDS011;67271;59.120;37.970;2023-08-06T11:45:07;3.92;;;3.33;;
77866;SDS011;67271;59.120;37.970;2023-08-06T11:47:37;8.48;;;3.67;;
77866;SDS011;67271;59.120;37.970;2023-08-06T11:50:05;5.20;;;3.38;;
77866;SDS011;67271;59.120;37.970;2023-08-06T11:52:32;4.05;;;3.50;;
77866;SDS011;67271;59.120;37.970;2023-08-06T11:57:25;10.02;;;3.60;;
77866;SDS011;67271;59.120;37.970;2023-08-06T11:59:51;5.30;;;3.65;;
77866;SDS011;67271;59.120;37.970;2023-08-06T12:02:16;9.15;;;3.33;;
77866;SDS011;67271;59.120;37.970;2023-08-06T12:04:58;6.57;;;3.33;;
77866;SDS011;67271;59.120;37.970;2023-08-06T12:07:41;4.68;;;3.33;;
77866;SDS011;67271;59.120;37.970;2023-08-06T12:10:09;6.20;;;3.58;;
77866;SDS011;67271;59.120;37.970;2023-08-06T12:12:35;4.45;;;3.35;;
77866;SDS011;67271;59.120;37.970;2023-08-06T12:15:03;11.48;;;4.05;;
77866;SDS011;67271;59.120;37.970;2023-08-06T12:17:29;5.72;;;3.63;;
77866;SDS011;67271;59.120;37.970;2023-08-06T12:19:55;8.25;;;3.67;;
77866;SDS011;67271;59.120;37.970;2023-08-06T12:22:21;6.30;;;3.53;;
77866;SDS011;67271;59.120;37.970;2023-08-06T12:24:47;9.18;;;3.85;;
77866;SDS011;67271;59.120;37.970;2023-08-06T12:27:13;5.15;;;3.60;;
77866;SDS011;67271;59.120;37.970;2023-08-06T12:29:48;5.47;;;3.78;;
77866;SDS011;67271;59.120;37.970;2023-08-06T12:32:14;8.52;;;4.18;;
77866;SDS011;67271;59.120;37.970;2023-08-06T12:34:41;5.82;;;3.47;;
77866;SDS011;67271;59.120;37.970;2023-08-06T12:37:08;13.90;;;11.57;;
77866;SDS011;67271;59.120;37.970;2023-08-06T12:39:35;8.30;;;6.68;;
77866;SDS011;67271;59.120;37.970;2023-08-06T12:42:04;6.07;;;3.97;;
77866;SDS011;67271;59.120;37.970;2023-08-06T12:44:31;6.70;;;3.72;;
77866;SDS011;67271;59.120;37.970;2023-08-06T12:46:57;6.63;;;3.80;;
77866;SDS011;67271;59.120;37.970;2023-08-06T12:49:24;7.45;;;3.75;;
77866;SDS011;67271;59.120;37.970;2023-08-06T12:51:53;8.40;;;4.22;;
77866;SDS011;67271;59.120;37.970;2023-08-06T12:54:20;8.57;;;4.07;;
77866;SDS011;67271;59.120;37.970;2023-08-06T12:56:46;8.27;;;4.20;;
77866;SDS011;67271;59.120;37.970;2023-08-06T12:59:16;5.47;;;4.43;;
77866;SDS011;67271;59.120;37.970;2023-08-06T13:01:43;6.28;;;4.07;;
77866;SDS011;67271;59.120;37.970;2023-08-06T13:04:09;9.27;;;4.95;;
77866;SDS011;67271;59.120;37.970;2023-08-06T13:06:35;7.40;;;4.60;;
77866;SDS011;67271;59.120;37.970;2023-08-06T13:09:09;8.77;;;3.92;;
77866;SDS011;67271;59.120;37.970;2023-08-06T13:11:35;7.60;;;4.43;;
77866;SDS011;67271;59.120;37.970;2023-08-06T13:14:06;6.85;;;4.53;;
77866;SDS011;67271;59.120;37.970;2023-08-06T13:16:37;6.90;;;4.40;;
77866;SDS011;67271;59.120;37.970;2023-08-06T13:19:05;6.38;;;4.05;;
77866;SDS011;67271;59.120;37.970;2023-08-06T13:24:08;8.70;;;4.10;;
77866;SDS011;67271;59.120;37.970;2023-08-06T13:26:35;6.22;;;4.00;;
77866;SDS011;67271;59.120;37.970;2023-08-06T13:29:01;6.85;;;4.07;;
77866;SDS011;67271;59.120;37.970;2023-08-06T13:31:27;9.10;;;4.40;;
77866;SDS011;67271;59.120;37.970;2023-08-06T13:33:54;8.82;;;4.72;;
77866;SDS011;67271;59.120;37.970;2023-08-06T13:36:21;5.15;;;3.95;;
77866;SDS011;67271;59.120;37.970;2023-08-06T13:38:48;7.05;;;4.20;;
77866;SDS011;67271;59.120;37.970;2023-08-06T13:41:14;7.43;;;3.83;;
77866;SDS011;67271;59.120;37.970;2023-08-06T13:43:40;5.85;;;4.53;;
77866;SDS011;67271;59.120;37.970;2023-08-06T13:46:06;5.82;;;3.88;;
77866;SDS011;67271;59.120;37.970;2023-08-06T13:48:32;11.45;;;4.05;;
77866;SDS011;67271;59.120;37.970;2023-08-06T13:50:57;9.20;;;4.25;;
77866;SDS011;67271;59.120;37.970;2023-08-06T13:53:24;6.72;;;3.83;;
77866;SDS011;67271;59.120;37.970;2023-08-06T13:55:55;5.60;;;3.83;;
77866;SDS011;67271;59.120;37.970;2023-08-06T13:58:22;4.78;;;3.47;;
77866;SDS011;67271;59.120;37.970;2023-08-06T14:00:49;8.23;;;4.10;;
77866;SDS011;67271;59.120;37.970;2023-08-06T14:03:18;7.20;;;4.00;;
77866;SDS011;67271;59.120;37.970;2023-08-06T14:05:44;5.38;;;4.10;;
77866;SDS011;67271;59.120;37.970;2023-08-06T14:08:10;6.53;;;4.60;;
77866;SDS011;67271;59.120;37.970;2023-08-06T14:10:36;7.72;;;4.20;;
77866;SDS011;67271;59.120;37.970;2023-08-06T14:13:02;7.22;;;4.22;;
77866;SDS011;67271;59.120;37.970;2023-08-06T14:15:28;6.60;;;4.05;;
77866;SDS011;67271;59.120;37.970;2023-08-06T14:17:53;8.20;;;3.97;;
77866;SDS011;67271;59.120;37.970;2023-08-06T14:20:19;6.30;;;3.95;;
77866;SDS011;67271;59.120;37.970;2023-08-06T14:22:45;5.07;;;3.67;;
77866;SDS011;67271;59.120;37.970;2023-08-06T14:25:11;6.70;;;3.90;;
77866;SDS011;67271;59.120;37.970;2023-08-06T14:27:37;8.90;;;3.70;;
77866;SDS011;67271;59.120;37.970;2023-08-06T14:30:05;5.43;;;4.18;;
77866;SDS011;67271;59.120;37.970;2023-08-06T14:32:32;5.03;;;3.72;;
77866;SDS011;67271;59.120;37.970;2023-08-06T14:34:58;5.22;;;3.90;;
77866;SDS011;67271;59.120;37.970;2023-08-06T14:37:24;9.02;;;4.18;;
77866;SDS011;67271;59.120;37.970;2023-08-06T14:39:50;7.03;;;4.32;;
77866;SDS011;67271;59.120;37.970;2023-08-06T14:42:17;5.60;;;4.10;;
77866;SDS011;67271;59.120;37.970;2023-08-06T14:44:43;6.35;;;4.22;;
77866;SDS011;67271;59.120;37.970;2023-08-06T14:47:09;9.77;;;3.97;;
77866;SDS011;67271;59.120;37.970;2023-08-06T14:49:35;7.88;;;3.75;;
77866;SDS011;67271;59.120;37.970;2023-08-06T14:52:01;5.57;;;4.20;;
77866;SDS011;67271;59.120;37.970;2023-08-06T14:54:27;6.32;;;4.40;;